createdAt,value
2018-12-18T00:00:03.194Z,10.43
2018-12-18T00:02:31.736Z,9.03
2018-12-18T00:05:04.375Z,13.23
2018-12-18T00:07:32.879Z,6.47
2018-12-18T00:10:01.434Z,8.57
2018-12-18T00:12:29.956Z,13.13
2018-12-18T00:15:10.751Z,8.93
2018-12-18T00:17:39.261Z,7.43
2018-12-18T00:20:07.796Z,11.17
2018-12-18T00:22:36.246Z,10.10
2018-12-18T00:25:05.937Z,13.97
2018-12-18T00:27:34.548Z,12.30
2018-12-18T00:30:03.057Z,10.17
2018-12-18T00:32:31.571Z,10.23
2018-12-18T00:35:00.022Z,12.03
2018-12-18T00:37:28.499Z,12.97
2018-12-18T00:39:56.977Z,7.77
2018-12-18T00:42:25.419Z,11.13
2018-12-18T00:44:53.873Z,7.57
2018-12-18T00:47:22.323Z,7.47
2018-12-18T00:49:50.857Z,14.87
2018-12-18T00:52:19.385Z,14.77
2018-12-18T00:54:47.895Z,10.10
2018-12-18T00:57:16.494Z,11.70
2018-12-18T00:59:45.029Z,8.37
2018-12-18T01:02:13.618Z,7.33
2018-12-18T01:04:42.113Z,12.27
2018-12-18T01:07:10.742Z,15.50
2018-12-18T01:09:39.197Z,11.43
2018-12-18T01:12:07.654Z,13.40
2018-12-18T01:14:36.109Z,14.27
2018-12-18T01:17:04.585Z,8.73
2018-12-18T01:19:33.064Z,8.40
2018-12-18T01:22:01.566Z,12.63
2018-12-18T01:24:30.086Z,14.43
2018-12-18T01:26:58.604Z,15.37
2018-12-18T01:29:27.225Z,11.07
2018-12-18T01:31:55.738Z,13.60
2018-12-18T01:34:24.218Z,9.40
2018-12-18T01:36:52.745Z,11.60
2018-12-18T01:39:21.226Z,16.90
2018-12-18T01:41:49.785Z,12.83
2018-12-18T01:44:18.282Z,16.63
2018-12-18T01:46:46.748Z,11.07
2018-12-18T01:49:15.283Z,11.57
2018-12-18T01:51:43.806Z,16.07
2018-12-18T01:54:12.258Z,9.33
2018-12-18T01:56:40.761Z,12.60
2018-12-18T01:59:09.237Z,12.67
2018-12-18T02:01:37.751Z,14.40
2018-12-18T02:04:06.401Z,15.13
2018-12-18T02:06:34.915Z,15.07
2018-12-18T02:09:04.042Z,14.83
2018-12-18T02:11:32.539Z,13.00
2018-12-18T02:14:01.029Z,10.00
2018-12-18T02:16:29.559Z,18.60
2018-12-18T02:18:57.986Z,11.93
2018-12-18T02:21:26.530Z,16.77
2018-12-18T02:23:55.076Z,12.00
2018-12-18T02:26:23.618Z,9.97
2018-12-18T02:28:52.103Z,10.53
2018-12-18T02:31:20.654Z,13.00
2018-12-18T02:33:49.105Z,12.03
2018-12-18T02:36:17.588Z,10.57
2018-12-18T02:38:46.057Z,11.67
2018-12-18T02:41:14.565Z,14.50
2018-12-18T02:43:43.155Z,11.47
2018-12-18T02:46:11.642Z,14.33
2018-12-18T02:48:40.155Z,10.47
2018-12-18T02:51:08.611Z,9.53
2018-12-18T02:53:37.070Z,9.50
2018-12-18T02:56:05.529Z,7.83
2018-12-18T02:58:34.029Z,10.90
2018-12-18T03:01:02.559Z,10.57
2018-12-18T03:03:30.999Z,8.73
2018-12-18T03:05:59.517Z,6.70
2018-12-18T03:08:28.011Z,10.03
2018-12-18T03:10:56.482Z,9.07
2018-12-18T03:13:25.047Z,7.97
2018-12-18T03:15:53.551Z,12.30
2018-12-18T03:18:22.043Z,13.33
2018-12-18T03:20:51.102Z,10.10
2018-12-18T03:23:19.623Z,9.87
2018-12-18T03:25:48.133Z,6.97
2018-12-18T03:28:16.750Z,6.83
2018-12-18T03:30:45.271Z,6.60
2018-12-18T03:33:13.820Z,7.83
2018-12-18T03:35:43.584Z,9.30
2018-12-18T03:38:12.202Z,7.30
2018-12-18T03:40:40.672Z,6.87
2018-12-18T03:43:09.213Z,7.50
2018-12-18T03:45:37.822Z,5.23
2018-12-18T03:48:06.436Z,5.50
2018-12-18T03:50:35.051Z,5.37
2018-12-18T03:53:03.551Z,7.90
2018-12-18T03:55:32.074Z,6.63
2018-12-18T03:58:00.680Z,8.27
2018-12-18T04:00:29.213Z,8.30
2018-12-18T04:02:57.808Z,5.53
2018-12-18T04:05:26.299Z,10.90
2018-12-18T04:07:54.770Z,7.37
2018-12-18T04:10:23.294Z,9.00
2018-12-18T04:12:51.786Z,8.40
2018-12-18T04:15:20.474Z,8.63
2018-12-18T04:17:48.931Z,7.40
2018-12-18T04:20:17.393Z,4.97
2018-12-18T04:22:45.824Z,6.50
2018-12-18T04:25:14.293Z,5.83
2018-12-18T04:27:42.724Z,4.57
2018-12-18T04:30:11.242Z,5.43
2018-12-18T04:32:40.516Z,8.90
2018-12-18T04:35:08.989Z,4.23
2018-12-18T04:37:37.583Z,5.80
2018-12-18T04:40:06.349Z,4.50
2018-12-18T04:42:34.853Z,4.77
2018-12-18T04:45:03.574Z,3.63
2018-12-18T04:47:32.243Z,8.17
2018-12-18T04:50:00.767Z,6.97
2018-12-18T04:52:29.282Z,3.93
2018-12-18T04:54:57.858Z,5.53
2018-12-18T04:57:26.345Z,3.50
2018-12-18T04:59:54.876Z,3.43
2018-12-18T05:02:23.361Z,7.60
2018-12-18T05:04:51.908Z,7.53
2018-12-18T05:07:20.495Z,3.50
2018-12-18T05:09:49.011Z,5.40
2018-12-18T05:12:17.502Z,5.17
2018-12-18T05:14:46.146Z,6.97
2018-12-18T05:17:14.744Z,7.80
2018-12-18T05:19:43.250Z,4.13
2018-12-18T05:22:11.799Z,7.03
2018-12-18T05:24:40.350Z,7.30
2018-12-18T05:27:09.014Z,7.57
2018-12-18T05:29:37.576Z,6.47
2018-12-18T05:32:06.041Z,5.63
2018-12-18T05:34:34.670Z,8.60
2018-12-18T05:37:03.200Z,6.27
2018-12-18T05:39:31.751Z,7.30
2018-12-18T05:42:00.248Z,5.97
2018-12-18T05:44:28.777Z,8.33
2018-12-18T05:46:57.251Z,5.87
2018-12-18T05:49:25.753Z,6.90
2018-12-18T05:51:54.215Z,6.17
2018-12-18T05:54:23.047Z,4.73
2018-12-18T05:56:51.556Z,5.33
2018-12-18T05:59:20.036Z,6.40
2018-12-18T06:01:48.656Z,9.33
2018-12-18T06:04:17.188Z,7.30
2018-12-18T06:06:45.718Z,6.27
2018-12-18T06:09:14.231Z,5.60
2018-12-18T06:11:42.840Z,11.57
2018-12-18T06:14:11.519Z,5.07
2018-12-18T06:16:40.080Z,8.50
2018-12-18T06:19:08.640Z,6.13
2018-12-18T06:21:37.197Z,6.47
2018-12-18T06:24:05.675Z,5.93
2018-12-18T06:26:34.161Z,6.70
2018-12-18T06:29:02.637Z,8.47
2018-12-18T06:31:31.152Z,7.43
2018-12-18T06:33:59.666Z,6.63
2018-12-18T06:36:28.139Z,5.80
2018-12-18T06:38:56.597Z,4.30
2018-12-18T06:41:25.049Z,8.40
2018-12-18T06:43:53.521Z,4.53
2018-12-18T06:46:22.087Z,7.03
2018-12-18T06:48:50.705Z,7.97
2018-12-18T06:51:19.286Z,6.00
2018-12-18T06:53:47.779Z,4.80
2018-12-18T06:56:16.250Z,5.30
2018-12-18T06:58:44.683Z,4.83
2018-12-18T07:01:13.189Z,5.47
2018-12-18T07:03:41.655Z,10.10
2018-12-18T07:06:10.101Z,6.93
2018-12-18T07:08:38.576Z,4.67
2018-12-18T07:11:07.089Z,4.67
2018-12-18T07:13:35.582Z,4.33
2018-12-18T07:16:04.112Z,6.13
2018-12-18T07:18:32.614Z,7.27
2018-12-18T07:21:01.016Z,5.40
2018-12-18T07:23:29.494Z,8.47
2018-12-18T07:25:57.968Z,5.70
2018-12-18T07:28:26.459Z,5.80
2018-12-18T07:30:55.129Z,5.57
2018-12-18T07:33:23.789Z,5.40
2018-12-18T07:35:52.209Z,5.47
2018-12-18T07:38:20.675Z,4.40
2018-12-18T07:40:49.126Z,5.47
2018-12-18T07:43:17.652Z,5.80
2018-12-18T07:45:46.237Z,11.53
2018-12-18T07:48:14.778Z,6.17
2018-12-18T07:50:43.467Z,4.77
2018-12-18T07:53:12.207Z,6.67
2018-12-18T07:55:40.708Z,4.20
2018-12-18T07:58:09.212Z,6.57
2018-12-18T08:00:37.773Z,3.37
2018-12-18T08:03:06.298Z,5.27
2018-12-18T08:05:34.788Z,6.53
2018-12-18T08:08:03.322Z,5.23
2018-12-18T08:10:31.750Z,7.40
2018-12-18T08:13:00.302Z,5.83
2018-12-18T08:15:28.815Z,5.13
2018-12-18T08:17:57.267Z,5.87
2018-12-18T08:20:25.758Z,5.43
2018-12-18T08:22:54.271Z,4.47
2018-12-18T08:25:23.396Z,6.70
2018-12-18T08:27:51.866Z,7.60
2018-12-18T08:30:20.335Z,5.23
2018-12-18T08:32:49.184Z,4.97
2018-12-18T08:35:17.634Z,4.93
2018-12-18T08:37:46.091Z,4.80
2018-12-18T08:40:14.632Z,3.37
2018-12-18T08:42:43.113Z,3.67
2018-12-18T08:45:11.595Z,4.63
2018-12-18T08:47:40.100Z,4.07
2018-12-18T08:50:09.494Z,3.13
2018-12-18T08:52:38.018Z,5.27
2018-12-18T08:55:07.158Z,4.93
2018-12-18T08:57:35.720Z,6.07
2018-12-18T09:00:04.488Z,3.97
2018-12-18T09:02:32.979Z,4.47
2018-12-18T09:05:01.525Z,4.17
2018-12-18T09:07:29.972Z,2.37
2018-12-18T09:09:58.446Z,5.53
2018-12-18T09:12:27.002Z,5.17
2018-12-18T09:14:57.476Z,3.97
2018-12-18T09:17:31.715Z,5.77
2018-12-18T09:20:00.232Z,4.37
2018-12-18T09:22:28.822Z,3.00
2018-12-18T09:24:57.266Z,4.57
2018-12-18T09:27:25.802Z,5.47
2018-12-18T09:29:54.298Z,4.03
2018-12-18T09:32:22.859Z,6.77
2018-12-18T09:34:51.428Z,4.43
2018-12-18T09:37:19.927Z,3.73
2018-12-18T09:39:48.434Z,2.33
2018-12-18T09:42:22.235Z,3.43
2018-12-18T09:44:50.689Z,4.33
2018-12-18T09:47:19.240Z,4.53
2018-12-18T09:49:47.751Z,2.47
2018-12-18T09:52:16.310Z,3.07
2018-12-18T09:54:44.775Z,6.40
2018-12-18T09:57:18.403Z,4.40
2018-12-18T09:59:46.912Z,2.17
2018-12-18T10:02:15.415Z,3.50
2018-12-18T10:04:44.033Z,2.60
2018-12-18T10:07:12.504Z,2.53
2018-12-18T10:09:41.045Z,3.63
2018-12-18T10:12:09.590Z,4.40
2018-12-18T10:14:38.361Z,2.07
2018-12-18T10:17:06.997Z,4.27
2018-12-18T10:19:35.635Z,4.57
2018-12-18T10:22:04.095Z,6.33
2018-12-18T10:24:32.646Z,2.37
2018-12-18T10:27:01.091Z,6.00
2018-12-18T10:29:29.990Z,1.73
2018-12-18T10:31:58.568Z,4.83
2018-12-18T10:34:27.081Z,4.10
2018-12-18T10:36:55.613Z,2.63
2018-12-18T10:39:24.103Z,5.60
2018-12-18T10:41:52.673Z,6.40
2018-12-18T10:44:21.287Z,3.90
2018-12-18T10:46:49.874Z,2.43
2018-12-18T10:49:18.383Z,2.37
2018-12-18T10:51:46.858Z,2.97
2018-12-18T10:54:15.390Z,3.13
2018-12-18T10:56:43.895Z,4.17
2018-12-18T10:59:12.349Z,4.07
2018-12-18T11:01:46.110Z,4.33
2018-12-18T11:04:14.565Z,5.50
2018-12-18T11:06:43.082Z,4.23
2018-12-18T11:09:11.555Z,3.17
2018-12-18T11:11:40.039Z,2.37
2018-12-18T11:14:08.539Z,8.17
2018-12-18T11:16:37.525Z,2.47
2018-12-18T11:19:06.451Z,2.83
2018-12-18T11:21:34.995Z,5.37
2018-12-18T11:24:03.569Z,4.83
2018-12-18T11:26:32.062Z,3.80
2018-12-18T11:29:00.567Z,2.97
2018-12-18T11:31:29.070Z,5.77
2018-12-18T11:33:57.544Z,3.00
2018-12-18T11:36:26.049Z,5.40
2018-12-18T11:38:54.548Z,3.43
2018-12-18T11:41:23.257Z,6.47
2018-12-18T11:43:51.718Z,1.97
2018-12-18T11:46:20.194Z,2.53
2018-12-18T11:48:48.713Z,4.27
2018-12-18T11:51:17.278Z,3.03
2018-12-18T11:53:45.754Z,4.43
2018-12-18T11:56:14.182Z,4.60
2018-12-18T11:58:42.717Z,8.57
2018-12-18T12:01:11.281Z,7.03
2018-12-18T12:03:39.780Z,6.07
2018-12-18T12:06:08.221Z,5.17
2018-12-18T12:08:36.671Z,5.53
2018-12-18T12:11:05.159Z,3.87
2018-12-18T12:13:33.616Z,6.57
2018-12-18T12:16:02.196Z,4.70
2018-12-18T12:21:26.519Z,4.10
2018-12-18T12:23:55.198Z,5.97
2018-12-18T12:26:29.059Z,3.10
2018-12-18T12:28:57.598Z,2.93
2018-12-18T12:31:26.216Z,3.87
2018-12-18T12:33:54.741Z,2.23
2018-12-18T12:36:29.415Z,4.73
2018-12-18T12:38:53.894Z,6.77
2018-12-18T12:41:22.481Z,4.37
2018-12-18T12:43:50.989Z,4.93
2018-12-18T12:46:19.541Z,4.23
2018-12-18T12:48:54.961Z,3.47
2018-12-18T12:51:24.135Z,3.70
2018-12-18T12:53:53.428Z,6.03
2018-12-18T12:56:22.351Z,3.60
2018-12-18T12:58:50.818Z,3.53
2018-12-18T13:01:19.679Z,3.47
2018-12-18T13:03:48.317Z,2.47
2018-12-18T13:06:17.179Z,3.27
2018-12-18T13:08:46.245Z,4.33
2018-12-18T13:11:14.928Z,1.63
2018-12-18T13:13:43.935Z,2.80
2018-12-18T13:16:12.486Z,2.67
2018-12-18T13:18:41.043Z,2.37
2018-12-18T13:21:09.570Z,3.97
2018-12-18T13:23:38.103Z,2.83
2018-12-18T13:26:06.682Z,3.87
2018-12-18T13:28:35.323Z,5.37
2018-12-18T13:31:04.011Z,4.77
2018-12-18T13:33:33.788Z,4.57
2018-12-18T13:36:02.480Z,1.50
2018-12-18T13:38:31.044Z,5.33
2018-12-18T13:40:59.571Z,3.33
2018-12-18T13:43:28.159Z,5.00
2018-12-18T13:45:59.344Z,4.73
2018-12-18T13:48:28.004Z,4.80
2018-12-18T13:50:57.110Z,3.80
2018-12-18T13:53:25.636Z,2.03
2018-12-18T13:55:54.703Z,5.00
2018-12-18T13:58:23.416Z,2.17
2018-12-18T14:00:51.965Z,2.63
2018-12-18T14:03:20.677Z,6.73
2018-12-18T14:05:49.190Z,6.47
2018-12-18T14:08:17.942Z,5.00
2018-12-18T14:10:46.605Z,3.10
2018-12-18T14:13:15.555Z,1.50
2018-12-18T14:15:44.334Z,4.30
2018-12-18T14:18:12.910Z,3.77
2018-12-18T14:20:41.516Z,4.53
2018-12-18T14:23:11.305Z,2.93
2018-12-18T14:25:39.899Z,7.03
2018-12-18T14:28:08.404Z,3.83
2018-12-18T14:30:37.079Z,5.10
2018-12-18T14:33:05.636Z,3.57
2018-12-18T14:35:34.170Z,3.37
2018-12-18T14:38:02.919Z,3.13
2018-12-18T14:40:31.607Z,2.43
2018-12-18T14:43:00.386Z,5.10
2018-12-18T14:45:28.891Z,3.43
2018-12-18T14:47:58.141Z,3.53
2018-12-18T14:50:26.696Z,2.93
2018-12-18T14:52:55.280Z,2.20
2018-12-18T14:55:23.793Z,1.40
2018-12-18T14:57:52.372Z,2.13
2018-12-18T15:00:21.021Z,7.90
2018-12-18T15:02:49.692Z,4.87
2018-12-18T15:05:18.287Z,2.90
2018-12-18T15:07:46.783Z,3.07
2018-12-18T15:10:15.562Z,2.73
2018-12-18T15:12:50.723Z,5.50
2018-12-18T15:15:19.340Z,2.67
2018-12-18T15:17:47.859Z,3.23
2018-12-18T15:20:16.448Z,6.20
2018-12-18T15:22:45.022Z,6.40
2018-12-18T15:25:13.557Z,4.47
2018-12-18T15:27:42.086Z,2.03
2018-12-18T15:30:11.055Z,3.73
2018-12-18T15:32:39.821Z,2.77
2018-12-18T15:35:08.389Z,6.50
2018-12-18T15:37:37.212Z,2.67
2018-12-18T15:40:05.946Z,4.93
2018-12-18T15:42:34.438Z,2.53
2018-12-18T15:45:02.966Z,2.63
2018-12-18T15:47:31.485Z,4.37
2018-12-18T15:49:59.996Z,6.00
2018-12-18T15:52:28.667Z,4.87
2018-12-18T15:54:57.201Z,2.97
2018-12-18T15:57:25.682Z,3.43
2018-12-18T15:59:54.181Z,2.97
2018-12-18T16:02:24.346Z,5.60
2018-12-18T16:04:53.031Z,5.43
2018-12-18T16:07:21.482Z,4.07
2018-12-18T16:09:50.034Z,6.13
2018-12-18T16:12:18.566Z,2.77
2018-12-18T16:14:47.186Z,4.37
2018-12-18T16:17:15.753Z,5.27
2018-12-18T16:19:44.375Z,3.10
2018-12-18T16:22:12.849Z,2.10
2018-12-18T16:24:41.472Z,2.30
2018-12-18T16:27:10.031Z,2.43
2018-12-18T16:29:39.269Z,6.93
2018-12-18T16:32:07.895Z,4.53
2018-12-18T16:34:36.401Z,6.53
2018-12-18T16:37:05.246Z,7.47
2018-12-18T16:39:33.837Z,5.33
2018-12-18T16:42:02.415Z,4.40
2018-12-18T16:44:30.994Z,3.43
2018-12-18T16:46:59.526Z,4.50
2018-12-18T16:49:28.013Z,4.43
2018-12-18T16:51:56.539Z,3.13
2018-12-18T16:54:25.339Z,7.90
2018-12-18T16:56:54.055Z,5.30
2018-12-18T16:59:22.533Z,5.17
2018-12-18T17:01:51.167Z,2.60
2018-12-18T17:04:19.744Z,4.57
2018-12-18T17:06:48.373Z,4.70
2018-12-18T17:09:16.963Z,4.77
2018-12-18T17:11:45.527Z,4.33
2018-12-18T17:14:14.290Z,3.60
2018-12-18T17:16:42.939Z,6.60
2018-12-18T17:19:11.457Z,4.13
2018-12-18T17:21:40.062Z,4.47
2018-12-18T17:24:08.731Z,4.97
2018-12-18T17:26:37.468Z,3.87
2018-12-18T17:29:06.951Z,7.27
2018-12-18T17:31:35.661Z,5.93
2018-12-18T17:34:04.201Z,4.03
2018-12-18T17:36:32.752Z,5.07
2018-12-18T17:39:01.246Z,3.43
2018-12-18T17:41:29.757Z,5.53
2018-12-18T17:43:58.377Z,3.40
2018-12-18T17:46:27.316Z,3.77
2018-12-18T17:49:06.292Z,3.33
2018-12-18T17:51:37.931Z,7.07
2018-12-18T17:59:34.766Z,3.50
2018-12-18T18:02:03.422Z,2.60
2018-12-18T18:04:32.023Z,3.57
2018-12-18T18:07:00.543Z,2.77
2018-12-18T18:09:28.965Z,3.83
2018-12-18T18:11:57.796Z,4.93
2018-12-18T18:14:26.434Z,4.13
2018-12-18T18:16:55.292Z,3.10
2018-12-18T18:19:36.521Z,2.87
2018-12-18T18:22:22.402Z,4.77
2018-12-18T18:27:58.515Z,3.90
2018-12-18T18:45:35.116Z,5.93
2018-12-18T18:54:23.147Z,4.73
2018-12-18T19:03:16.952Z,3.47
2018-12-18T19:17:59.197Z,5.50
2018-12-18T19:32:47.872Z,4.57
2018-12-18T23:54:52.932Z,3.57
